Time;durP1;ratioP1;P1;durP2;ratioP2;P2;SDS_P1;SDS_P2;PMS_P1;PMS_P2;Temp;Humidity;BMP_temperature;BMP_pressure;BME280_temperature;BME280_humidity;BME280_pressure;Samples;Min_cycle;Max_cycle;Signal;HPM_P1;HPM_P2
2022/04/02 05:33:26;;;;;;;9.60;4.75;;;;;;;;;;5032084;28;20095;-74
2022/04/02 05:35:52;;;;;;;8.10;4.47;;;;;;;;;;5047127;28;20033;-73
2022/04/02 09:37:26;;;;;;;6.63;3.55;;;;;;;;;;5114176;27;20043;-72
2022/04/02 10:01:34;;;;;;;9.52;3.17;;;;;;;;;;5113853;28;20027;-73
2022/04/02 10:04:19;;;;;;;8.70;3.42;;;;;;;;;;5111222;28;20032;-72
2022/04/02 10:19:44;;;;;;;10.38;3.13;;;;;;;;;;5112026;28;20404;-72
2022/04/02 10:22:11;;;;;;;5.25;2.95;;;;;;;;;;5109424;28;20020;-72
2022/04/02 10:24:41;;;;;;;7.03;3.47;;;;;;;;;;5085049;28;20324;-72
2022/04/02 10:27:11;;;;;;;6.43;3.53;;;;;;;;;;5089908;28;20035;-74
2022/04/02 10:29:46;;;;;;;3.88;2.90;;;;;;;;;;5099038;28;20025;-72
2022/04/02 10:32:27;;;;;;;4.53;2.67;;;;;;;;;;5108589;28;20023;-72
2022/04/02 10:34:58;;;;;;;4.72;3.08;;;;;;;;;;5110394;28;20024;-72
2022/04/02 10:37:28;;;;;;;3.97;3.15;;;;;;;;;;5110517;28;20476;-72
2022/04/02 10:39:54;;;;;;;6.28;3.50;;;;;;;;;;5092875;28;20028;-72
2022/04/02 10:42:23;;;;;;;7.93;3.55;;;;;;;;;;5108776;28;20033;-72
2022/04/02 10:44:56;;;;;;;5.80;3.40;;;;;;;;;;5110279;28;20107;-72
2022/04/02 10:47:27;;;;;;;4.85;3.42;;;;;;;;;;5109615;28;20027;-72
2022/04/02 10:49:57;;;;;;;6.72;3.90;;;;;;;;;;5090911;28;20545;-73
2022/04/02 10:52:25;;;;;;;5.97;2.97;;;;;;;;;;5109274;28;20019;-73
2022/04/02 10:54:51;;;;;;;6.43;3.10;;;;;;;;;;5110095;28;20032;-73
2022/04/02 10:57:18;;;;;;;6.80;3.90;;;;;;;;;;5109136;28;20373;-72
2022/04/02 10:59:47;;;;;;;9.77;3.75;;;;;;;;;;5116473;28;20039;-72
2022/04/02 11:02:23;;;;;;;25.00;4.53;;;;;;;;;;5129703;28;20083;-71
2022/04/02 11:04:49;;;;;;;5.32;3.22;;;;;;;;;;5132192;27;20429;-72
2022/04/02 11:07:27;;;;;;;6.47;3.40;;;;;;;;;;5116053;27;20468;-72
2022/04/02 11:09:53;;;;;;;12.43;3.75;;;;;;;;;;5114932;27;20748;-72
2022/04/02 11:12:26;;;;;;;6.28;3.75;;;;;;;;;;5133656;27;20023;-72
2022/04/02 11:14:54;;;;;;;5.43;3.50;;;;;;;;;;5120196;27;20031;-72
2022/04/02 11:17:33;;;;;;;5.22;3.80;;;;;;;;;;5101776;28;20020;-72
2022/04/02 11:20:02;;;;;;;6.77;3.80;;;;;;;;;;5112701;28;20020;-73
2022/04/02 11:22:48;;;;;;;6.18;3.35;;;;;;;;;;5112038;28;20035;-72
2022/04/02 11:25:20;;;;;;;6.47;4.47;;;;;;;;;;5094383;28;20084;-72
2022/04/02 11:27:49;;;;;;;5.88;3.53;;;;;;;;;;5112726;28;20035;-72
2022/04/02 11:30:16;;;;;;;14.00;3.28;;;;;;;;;;5103043;27;20479;-72
2022/04/02 11:32:43;;;;;;;5.38;3.30;;;;;;;;;;5132312;27;20020;-72
2022/04/02 11:35:22;;;;;;;6.35;3.80;;;;;;;;;;5114398;27;20027;-72
2022/04/02 11:38:03;;;;;;;5.53;3.80;;;;;;;;;;5093783;28;20134;-72
2022/04/02 11:40:31;;;;;;;6.85;3.92;;;;;;;;;;5112111;28;20028;-72
2022/04/02 11:43:02;;;;;;;5.97;4.03;;;;;;;;;;5092476;28;20027;-72
2022/04/02 11:45:29;;;;;;;6.63;4.10;;;;;;;;;;5113258;27;20028;-72
2022/04/02 11:48:16;;;;;;;6.68;3.78;;;;;;;;;;5112271;28;20019;-72
2022/04/02 11:50:43;;;;;;;6.45;3.80;;;;;;;;;;5112276;28;20031;-71
2022/04/02 11:53:09;;;;;;;5.82;3.55;;;;;;;;;;5111727;28;20437;-72
2022/04/02 11:55:46;;;;;;;4.15;3.10;;;;;;;;;;5092351;28;20148;-72
2022/04/02 11:58:14;;;;;;;5.22;3.17;;;;;;;;;;5108398;28;20012;-72
2022/04/02 12:00:41;;;;;;;8.43;3.47;;;;;;;;;;5109275;27;20024;-72
2022/04/02 12:03:27;;;;;;;7.15;3.67;;;;;;;;;;5107699;28;20119;-74
2022/04/02 12:05:53;;;;;;;6.38;3.78;;;;;;;;;;5089869;28;20442;-72
2022/04/02 12:08:32;;;;;;;5.25;3.33;;;;;;;;;;5091302;28;20020;-72
2022/04/02 12:10:59;;;;;;;4.80;3.63;;;;;;;;;;5107796;28;20131;-72
2022/04/02 12:13:25;;;;;;;6.43;3.67;;;;;;;;;;5108426;28;20046;-72
2022/04/02 12:16:16;;;;;;;4.95;3.65;;;;;;;;;;5107946;27;20031;-73
2022/04/02 12:18:53;;;;;;;7.95;3.75;;;;;;;;;;5110447;28;20027;-72
2022/04/02 12:21:30;;;;;;;4.50;3.13;;;;;;;;;;5090119;28;20058;-72
2022/04/02 12:23:56;;;;;;;5.30;3.30;;;;;;;;;;5108479;28;20500;-72
2022/04/02 12:26:25;;;;;;;5.30;3.67;;;;;;;;;;5109373;28;20451;-73
2022/04/02 12:28:55;;;;;;;4.93;3.65;;;;;;;;;;5109283;28;20371;-72
2022/04/02 12:31:23;;;;;;;6.97;3.60;;;;;;;;;;5108321;27;20110;-72
2022/04/02 12:33:52;;;;;;;6.85;4.15;;;;;;;;;;5110677;28;20019;-72
2022/04/02 12:36:18;;;;;;;5.68;4.00;;;;;;;;;;5108958;28;20024;-72
2022/04/02 12:38:44;;;;;;;9.52;3.80;;;;;;;;;;5109918;28;20043;-72
2022/04/02 12:41:21;;;;;;;6.38;4.15;;;;;;;;;;5107318;28;20106;-74
2022/04/02 12:43:47;;;;;;;6.10;4.57;;;;;;;;;;5108991;28;20904;-72
2022/04/02 12:46:25;;;;;;;5.65;3.50;;;;;;;;;;5088963;28;20031;-72
2022/04/02 12:48:51;;;;;;;8.75;3.72;;;;;;;;;;5107980;28;20114;-72
2022/04/02 12:51:18;;;;;;;4.72;3.50;;;;;;;;;;5090275;28;20027;-74
2022/04/02 12:56:47;;;;;;;6.97;4.28;;;;;;;;;;5110088;28;21422;-71
2022/04/02 12:59:22;;;;;;;6.38;3.60;;;;;;;;;;5092105;28;20035;-72
2022/04/02 13:01:48;;;;;;;5.50;3.70;;;;;;;;;;5090001;28;20038;-72
2022/04/02 13:04:15;;;;;;;6.25;4.28;;;;;;;;;;5089635;28;20103;-72
2022/04/02 13:06:44;;;;;;;10.73;4.18;;;;;;;;;;5107780;28;20026;-72
2022/04/02 13:09:14;;;;;;;5.45;3.78;;;;;;;;;;5089717;28;20026;-72
2022/04/02 13:11:41;;;;;;;7.63;4.22;;;;;;;;;;5108313;28;20107;-71
2022/04/02 13:14:17;;;;;;;4.80;3.85;;;;;;;;;;5107709;28;20046;-71
2022/04/02 13:16:44;;;;;;;7.10;4.22;;;;;;;;;;5108286;27;20023;-72
2022/04/02 13:22:14;;;;;;;10.05;4.93;;;;;;;;;;5109585;28;20179;-71
2022/04/02 13:25:15;;;;;;;7.20;4.10;;;;;;;;;;5106681;28;20507;-72
2022/04/02 13:27:59;;;;;;;6.72;4.60;;;;;;;;;;4989152;28;20046;-72
2022/04/02 13:30:35;;;;;;;6.10;3.97;;;;;;;;;;5003481;28;20476;-72
2022/04/02 13:33:04;;;;;;;5.97;4.05;;;;;;;;;;5004674;28;20440;-71
2022/04/02 13:35:33;;;;;;;8.57;3.78;;;;;;;;;;5005587;28;20057;-72
2022/04/02 13:38:09;;;;;;;6.95;4.20;;;;;;;;;;5005536;28;20026;-72
2022/04/02 13:40:38;;;;;;;6.63;4.32;;;;;;;;;;5006304;28;20091;-72
2022/04/02 13:43:09;;;;;;;7.67;4.27;;;;;;;;;;5005361;28;20408;-72
2022/04/02 13:45:37;;;;;;;5.70;4.50;;;;;;;;;;5005153;28;20028;-72
2022/04/02 13:48:03;;;;;;;5.97;4.20;;;;;;;;;;5004108;28;20475;-72
2022/04/02 13:50:30;;;;;;;6.93;3.92;;;;;;;;;;5005149;28;20030;-71
2022/04/02 13:53:15;;;;;;;7.63;3.75;;;;;;;;;;5004391;28;20091;-72
2022/04/02 13:55:41;;;;;;;5.82;4.10;;;;;;;;;;5004591;28;20026;-72
2022/04/02 13:58:08;;;;;;;6.47;4.18;;;;;;;;;;4989077;28;20068;-72
2022/04/02 14:00:37;;;;;;;6.05;4.40;;;;;;;;;;5004960;28;20018;-72
2022/04/02 14:03:04;;;;;;;5.45;4.03;;;;;;;;;;5046611;28;20055;-72
2022/04/02 14:05:32;;;;;;;6.82;4.00;;;;;;;;;;5106574;28;20042;-71
2022/04/02 14:08:06;;;;;;;8.70;4.15;;;;;;;;;;5107787;28;20035;-71
2022/04/02 14:10:36;;;;;;;12.60;4.13;;;;;;;;;;5107861;28;20016;-72
2022/04/02 14:13:09;;;;;;;6.75;4.00;;;;;;;;;;5087812;28;20464;-72
2022/04/02 14:15:38;;;;;;;7.03;3.75;;;;;;;;;;5089323;28;20024;-72
2022/04/02 14:18:08;;;;;;;7.95;4.03;;;;;;;;;;5108444;28;20047;-72
2022/04/02 14:20:34;;;;;;;5.80;4.00;;;;;;;;;;5088141;28;20036;-72
2022/04/02 14:23:04;;;;;;;8.18;4.07;;;;;;;;;;5087722;28;20072;-72
2022/04/02 14:25:33;;;;;;;7.03;4.43;;;;;;;;;;5106797;28;20058;-72
2022/04/02 14:28:07;;;;;;;6.60;4.30;;;;;;;;;;5089222;28;20428;-72
2022/04/02 14:30:36;;;;;;;5.32;3.42;;;;;;;;;;5088912;28;20019;-72
2022/04/02 14:33:23;;;;;;;6.78;4.13;;;;;;;;;;5104277;28;20031;-72
2022/04/02 14:36:00;;;;;;;5.82;3.90;;;;;;;;;;5107645;28;20045;-72
2022/04/02 14:38:31;;;;;;;6.05;3.67;;;;;;;;;;5108083;28;20556;-72
2022/04/02 14:41:08;;;;;;;7.93;4.00;;;;;;;;;;5111958;28;20030;-72
2022/04/02 14:43:53;;;;;;;6.45;4.32;;;;;;;;;;5110900;28;20031;-72
2022/04/02 14:46:18;;;;;;;5.47;3.92;;;;;;;;;;5092632;27;20032;-71
2022/04/02 14:49:03;;;;;;;6.85;4.40;;;;;;;;;;5093124;28;20031;-71
2022/04/02 14:51:32;;;;;;;6.47;4.68;;;;;;;;;;5111222;28;20069;-73
2022/04/02 14:53:58;;;;;;;6.82;4.25;;;;;;;;;;5111363;28;20028;-71
2022/04/02 14:56:43;;;;;;;5.15;3.92;;;;;;;;;;5091359;28;20064;-72
2022/04/02 14:59:27;;;;;;;8.23;4.18;;;;;;;;;;5093308;28;20387;-71
2022/04/02 15:01:53;;;;;;;8.70;3.78;;;;;;;;;;5090854;28;20541;-71
2022/04/02 15:04:19;;;;;;;5.05;3.92;;;;;;;;;;5089635;28;20040;-70
2022/04/02 15:06:51;;;;;;;6.32;4.13;;;;;;;;;;5108632;28;20019;-71
2022/04/02 15:09:27;;;;;;;6.57;4.72;;;;;;;;;;5109666;28;20480;-70
2022/04/02 15:12:03;;;;;;;8.95;4.25;;;;;;;;;;5108275;28;20032;-72
2022/04/02 15:14:29;;;;;;;5.93;4.07;;;;;;;;;;5109769;28;20030;-72
2022/04/02 15:16:56;;;;;;;13.63;6.97;;;;;;;;;;5108633;27;20115;-71
2022/04/02 15:19:22;;;;;;;8.18;4.95;;;;;;;;;;5108490;28;20028;-71
2022/04/02 15:21:52;;;;;;;8.20;4.72;;;;;;;;;;5090888;28;20118;-71
2022/04/02 15:24:19;;;;;;;9.68;4.63;;;;;;;;;;5108154;28;20035;-72
2022/04/02 15:26:49;;;;;;;7.18;4.68;;;;;;;;;;5091236;28;20019;-71
2022/04/02 15:29:15;;;;;;;6.43;4.63;;;;;;;;;;5107361;28;20380;-72
2022/04/02 15:32:00;;;;;;;7.15;4.47;;;;;;;;;;5107879;27;20023;-71
2022/04/02 15:34:30;;;;;;;5.43;4.28;;;;;;;;;;5107896;28;20024;-71
2022/04/02 15:37:04;;;;;;;8.32;5.25;;;;;;;;;;5090237;28;20015;-72
2022/04/02 15:39:33;;;;;;;6.95;3.88;;;;;;;;;;5107843;28;20066;-71
2022/04/02 15:42:00;;;;;;;5.40;3.80;;;;;;;;;;5107433;28;20020;-71
2022/04/02 15:44:28;;;;;;;8.43;4.05;;;;;;;;;;5089759;28;20088;-70
2022/04/02 15:46:54;;;;;;;5.63;3.45;;;;;;;;;;5107309;27;20028;-71
2022/04/02 15:49:20;;;;;;;5.22;3.50;;;;;;;;;;5110869;28;20034;-71
2022/04/02 15:51:49;;;;;;;4.95;3.80;;;;;;;;;;5090653;28;20028;-71
2022/04/02 15:54:26;;;;;;;8.85;3.63;;;;;;;;;;5090364;28;20508;-71
2022/04/02 15:57:04;;;;;;;6.68;3.88;;;;;;;;;;5090324;28;20122;-72
2022/04/02 15:59:31;;;;;;;5.40;3.60;;;;;;;;;;5109834;28;20023;-71
2022/04/02 16:01:57;;;;;;;6.72;3.97;;;;;;;;;;5109516;27;20105;-74
2022/04/02 16:04:23;;;;;;;6.97;3.85;;;;;;;;;;5109846;28;20391;-72
2022/04/02 16:06:49;;;;;;;4.90;3.35;;;;;;;;;;5110743;28;20015;-71
2022/04/02 16:09:18;;;;;;;4.90;2.90;;;;;;;;;;5092438;28;20438;-71
2022/04/02 16:11:45;;;;;;;5.20;3.80;;;;;;;;;;5090461;28;20118;-73
2022/04/02 16:14:13;;;;;;;7.38;3.95;;;;;;;;;;5108193;28;20215;-72
2022/04/02 16:16:48;;;;;;;9.07;4.20;;;;;;;;;;5090781;28;20023;-72
2022/04/02 16:19:34;;;;;;;5.88;4.00;;;;;;;;;;5109417;28;20032;-71
2022/04/02 16:22:07;;;;;;;8.15;4.05;;;;;;;;;;5108248;28;20118;-72
2022/04/02 16:24:33;;;;;;;7.53;4.93;;;;;;;;;;5108319;28;20459;-71
2022/04/02 16:27:00;;;;;;;5.28;3.67;;;;;;;;;;5110295;28;20027;-71
2022/04/02 16:29:26;;;;;;;7.75;3.97;;;;;;;;;;5108529;28;20112;-71
2022/04/02 16:31:53;;;;;;;7.70;3.60;;;;;;;;;;5109654;28;20028;-72
2022/04/02 16:34:46;;;;;;;5.05;3.30;;;;;;;;;;5090091;28;20073;-71
2022/04/02 16:37:13;;;;;;;5.80;3.47;;;;;;;;;;5104643;28;20365;-71
2022/04/02 16:39:44;;;;;;;5.95;3.67;;;;;;;;;;5091377;28;20067;-71
2022/04/02 16:42:10;;;;;;;;;;;;;;;;;;5107734;28;20447;-71
2022/04/02 16:44:36;;;;;;;5.47;3.28;;;;;;;;;;5091211;28;20133;-71
2022/04/02 16:47:10;;;;;;;4.80;3.40;;;;;;;;;;5109165;28;20024;-71
2022/04/02 17:02:01;;;;;;;5.07;3.65;;;;;;;;;;5115329;27;20012;-71
2022/04/02 17:04:27;;;;;;;6.15;3.60;;;;;;;;;;5093847;28;20050;-72
2022/04/02 17:07:06;;;;;;;7.32;3.70;;;;;;;;;;5112276;28;20034;-72
2022/04/02 17:09:32;;;;;;;6.55;3.83;;;;;;;;;;5094259;28;20020;-72
2022/04/02 17:11:58;;;;;;;8.10;4.07;;;;;;;;;;5111557;28;20055;-71
2022/04/02 17:14:28;;;;;;;4.57;2.83;;;;;;;;;;5094211;28;20035;-72
2022/04/02 17:16:54;;;;;;;4.55;3.33;;;;;;;;;;5094106;28;20057;-71
2022/04/02 17:19:28;;;;;;;5.65;3.50;;;;;;;;;;5093741;28;20488;-72
2022/04/02 17:22:17;;;;;;;7.38;4.75;;;;;;;;;;5110679;28;20473;-72
2022/04/02 17:24:43;;;;;;;12.60;6.18;;;;;;;;;;5089676;28;20043;-71
2022/04/02 17:27:26;;;;;;;13.35;5.32;;;;;;;;;;5113101;28;20020;-73
2022/04/02 17:29:53;;;;;;;9.32;4.25;;;;;;;;;;5095009;28;20483;-71
2022/04/02 17:32:20;;;;;;;7.45;4.57;;;;;;;;;;5094097;28;20031;-72
2022/04/02 17:34:46;;;;;;;10.93;5.20;;;;;;;;;;5093652;28;20137;-71
2022/04/02 17:37:14;;;;;;;8.40;4.82;;;;;;;;;;5113471;28;20024;-72
2022/04/02 17:39:59;;;;;;;7.13;4.13;;;;;;;;;;5093529;28;20530;-72
2022/04/02 17:42:34;;;;;;;8.70;4.50;;;;;;;;;;5094612;28;20023;-72
2022/04/02 17:45:12;;;;;;;6.47;4.05;;;;;;;;;;5112697;28;20028;-72
2022/04/02 17:47:38;;;;;;;9.63;4.85;;;;;;;;;;5112641;28;20027;-72
2022/04/02 17:50:05;;;;;;;6.65;4.50;;;;;;;;;;5094670;28;20027;-72
2022/04/02 17:52:33;;;;;;;12.77;5.18;;;;;;;;;;5093196;28;20031;-71
2022/04/02 17:55:00;;;;;;;8.50;4.20;;;;;;;;;;5093598;28;20042;-71
2022/04/02 17:57:26;;;;;;;10.10;4.72;;;;;;;;;;5111541;28;20069;-71
2022/04/02 17:59:53;;;;;;;6.78;4.75;;;;;;;;;;5093697;28;20031;-72
2022/04/02 18:02:20;;;;;;;7.10;4.93;;;;;;;;;;5112656;28;20023;-72
2022/04/02 18:04:53;;;;;;;7.35;4.90;;;;;;;;;;5127402;27;20091;-72
2022/04/02 18:07:25;;;;;;;6.88;4.45;;;;;;;;;;5114445;27;20027;-71
2022/04/02 18:09:51;;;;;;;7.05;4.63;;;;;;;;;;5133447;27;20020;-71
2022/04/02 18:12:18;;;;;;;7.40;4.20;;;;;;;;;;5131474;27;20105;-71
2022/04/02 18:14:45;;;;;;;8.68;5.25;;;;;;;;;;5112482;27;20030;-72
2022/04/02 18:17:14;;;;;;;7.82;4.55;;;;;;;;;;5100439;28;20027;-71
2022/04/02 18:19:40;;;;;;;10.25;5.78;;;;;;;;;;5093246;28;20032;-72
2022/04/02 18:22:07;;;;;;;7.68;4.95;;;;;;;;;;5111215;28;20023;-72
2022/04/02 18:24:33;;;;;;;11.15;6.78;;;;;;;;;;5092838;28;20040;-72
2022/04/02 18:26:59;;;;;;;11.32;6.53;;;;;;;;;;5111209;28;20498;-71
2022/04/02 18:29:34;;;;;;;11.70;5.78;;;;;;;;;;5094790;28;20384;-71
2022/04/02 18:32:00;;;;;;;7.82;5.13;;;;;;;;;;5095055;28;20024;-72
2022/04/02 18:37:35;;;;;;;8.27;5.75;;;;;;;;;;5131024;22;20055;-83
2022/04/02 18:40:02;;;;;;;13.60;7.72;;;;;;;;;;5105466;28;20031;-82
2022/04/02 18:42:28;;;;;;;13.32;6.43;;;;;;;;;;5089986;28;20468;-82
2022/04/02 18:44:54;;;;;;;8.73;5.53;;;;;;;;;;5088375;28;20046;-82
2022/04/02 18:47:20;;;;;;;7.35;5.88;;;;;;;;;;5088044;28;20084;-83
2022/04/02 18:49:46;;;;;;;7.20;5.07;;;;;;;;;;5107129;28;20024;-83
2022/04/02 18:52:13;;;;;;;7.75;5.50;;;;;;;;;;5107607;28;20045;-82
2022/04/02 18:54:40;;;;;;;9.85;5.75;;;;;;;;;;5103890;28;20362;-82
2022/04/02 18:57:06;;;;;;;9.27;5.00;;;;;;;;;;5107897;28;20030;-83
2022/04/02 18:59:32;;;;;;;8.45;5.80;;;;;;;;;;5088142;28;20236;-82
2022/04/02 19:01:58;;;;;;;8.60;6.03;;;;;;;;;;5105566;28;20172;-83
2022/04/02 19:04:24;;;;;;;11.48;5.82;;;;;;;;;;5102462;28;20118;-82
2022/04/02 19:06:50;;;;;;;9.10;5.50;;;;;;;;;;5106955;28;20019;-81
2022/04/02 19:09:16;;;;;;;8.13;5.65;;;;;;;;;;5107166;28;20168;-73
2022/04/02 19:11:42;;;;;;;9.18;5.93;;;;;;;;;;5107092;28;20419;-73
2022/04/02 19:14:08;;;;;;;9.35;6.32;;;;;;;;;;5104994;28;20020;-73
2022/04/02 19:16:34;;;;;;;10.20;5.97;;;;;;;;;;5107555;28;20161;-73
2022/04/02 19:19:00;;;;;;;12.85;7.45;;;;;;;;;;5107314;28;20092;-73
2022/04/02 19:21:26;;;;;;;9.18;6.25;;;;;;;;;;5105390;28;20024;-72
2022/04/02 19:23:53;;;;;;;11.05;7.10;;;;;;;;;;5087669;28;20051;-73
2022/04/02 19:26:19;;;;;;;9.52;7.03;;;;;;;;;;5108318;28;20016;-72
2022/04/02 19:28:45;;;;;;;10.98;6.82;;;;;;;;;;5108950;28;20031;-73
2022/04/02 19:31:11;;;;;;;8.30;6.88;;;;;;;;;;5089676;28;20020;-73
2022/04/02 19:33:37;;;;;;;9.82;6.57;;;;;;;;;;5108046;28;20384;-73
2022/04/02 19:36:04;;;;;;;10.98;7.00;;;;;;;;;;5091245;28;20367;-73
2022/04/02 19:38:30;;;;;;;10.77;7.15;;;;;;;;;;5110714;28;20172;-73
2022/04/02 19:40:56;;;;;;;12.30;7.28;;;;;;;;;;5108884;28;20030;-73
2022/04/02 19:43:22;;;;;;;11.00;6.90;;;;;;;;;;5092159;28;20122;-73
2022/04/02 19:45:48;;;;;;;9.70;6.75;;;;;;;;;;5110512;28;20019;-73
2022/04/02 19:48:14;;;;;;;9.40;6.75;;;;;;;;;;5108380;28;20500;-72
2022/04/02 19:50:40;;;;;;;16.83;6.85;;;;;;;;;;5110399;27;20077;-73
2022/04/02 19:53:07;;;;;;;8.73;6.68;;;;;;;;;;5109505;28;20030;-72
2022/04/02 19:55:33;;;;;;;11.25;7.32;;;;;;;;;;5108210;28;20058;-73
2022/04/02 19:58:00;;;;;;;9.57;6.60;;;;;;;;;;5106204;28;20024;-73
2022/04/02 20:00:26;;;;;;;8.60;6.45;;;;;;;;;;5093658;28;20024;-72
2022/04/02 20:03:12;;;;;;;10.07;7.20;;;;;;;;;;5115799;28;20039;-72
2022/04/02 20:05:38;;;;;;;10.73;7.20;;;;;;;;;;5112346;28;20384;-73
2022/04/02 20:08:11;;;;;;;9.90;7.30;;;;;;;;;;5113180;28;20050;-73
2022/04/02 20:10:46;;;;;;;9.98;6.75;;;;;;;;;;5116193;28;20084;-72
2022/04/02 20:13:15;;;;;;;10.52;7.22;;;;;;;;;;5102596;28;20020;-73
2022/04/02 20:15:42;;;;;;;8.52;6.78;;;;;;;;;;5109208;28;20058;-73
2022/04/02 20:18:08;;;;;;;10.93;6.78;;;;;;;;;;5108744;28;20354;-73
2022/04/02 20:20:34;;;;;;;46.72;14.68;;;;;;;;;;5092468;28;20488;-72
2022/04/02 20:23:00;;;;;;;53.20;16.83;;;;;;;;;;5110242;28;20071;-72
2022/04/02 20:25:26;;;;;;;96.25;28.52;;;;;;;;;;5110706;28;20393;-72
2022/04/02 20:27:52;;;;;;;44.75;16.83;;;;;;;;;;5091564;28;20217;-73
2022/04/02 20:30:18;;;;;;;29.05;12.80;;;;;;;;;;5110257;28;20107;-72
2022/04/02 20:32:45;;;;;;;17.77;9.18;;;;;;;;;;5085713;28;20484;-72
2022/04/02 20:35:12;;;;;;;13.85;8.65;;;;;;;;;;5106450;27;20031;-72
2022/04/02 20:37:39;;;;;;;10.02;7.28;;;;;;;;;;5109719;28;20038;-73
2022/04/02 20:40:05;;;;;;;10.75;7.82;;;;;;;;;;5111355;28;20039;-72
2022/04/02 20:42:31;;;;;;;10.38;7.57;;;;;;;;;;5090469;28;20551;-72
2022/04/02 20:44:58;;;;;;;11.75;6.90;;;;;;;;;;5091971;28;20022;-72
2022/04/02 20:47:24;;;;;;;12.48;7.88;;;;;;;;;;5110977;28;20062;-72
2022/04/02 20:49:50;;;;;;;10.80;7.57;;;;;;;;;;5110305;28;20043;-72
2022/04/02 20:52:16;;;;;;;9.57;6.68;;;;;;;;;;5092148;28;20074;-72
2022/04/02 20:54:42;;;;;;;9.80;7.20;;;;;;;;;;5108492;28;20016;-72
2022/04/02 20:57:08;;;;;;;10.13;7.28;;;;;;;;;;5110072;28;20019;-72
2022/04/02 20:59:35;;;;;;;8.73;6.68;;;;;;;;;;5110306;28;20028;-73
2022/04/02 21:02:01;;;;;;;9.82;6.88;;;;;;;;;;5105404;28;20413;-73
2022/04/02 21:04:27;;;;;;;10.52;6.82;;;;;;;;;;5090288;27;20413;-73
2022/04/02 21:06:53;;;;;;;9.90;6.63;;;;;;;;;;5108538;28;20069;-73
2022/04/02 21:09:19;;;;;;;12.73;7.38;;;;;;;;;;5084835;28;20044;-73
2022/04/02 21:11:45;;;;;;;12.02;7.40;;;;;;;;;;5107095;28;20028;-73
2022/04/02 21:14:11;;;;;;;9.20;7.10;;;;;;;;;;5107167;28;20426;-73
2022/04/02 21:16:38;;;;;;;8.65;6.32;;;;;;;;;;5089047;28;20098;-72
2022/04/02 21:19:04;;;;;;;8.45;7.03;;;;;;;;;;5108552;28;20028;-73
2022/04/02 21:21:30;;;;;;;10.98;6.65;;;;;;;;;;5089654;28;20035;-73
2022/04/02 21:23:56;;;;;;;8.65;6.13;;;;;;;;;;5090216;28;20046;-73
2022/04/02 21:26:22;;;;;;;9.40;6.75;;;;;;;;;;5108802;28;20026;-73
2022/04/02 21:28:48;;;;;;;11.02;7.05;;;;;;;;;;5109405;28;20106;-72
2022/04/02 21:31:14;;;;;;;8.38;5.78;;;;;;;;;;5085392;28;20036;-72
2022/04/02 21:33:40;;;;;;;8.48;6.38;;;;;;;;;;5098494;28;20023;-72
2022/04/02 21:36:06;;;;;;;9.40;6.93;;;;;;;;;;5101135;27;20393;-73
2022/04/02 21:38:32;;;;;;;8.52;6.15;;;;;;;;;;5105968;28;20028;-73
2022/04/02 21:40:59;;;;;;;11.13;7.72;;;;;;;;;;5078283;28;20521;-73
2022/04/02 21:43:25;;;;;;;8.43;6.10;;;;;;;;;;5097546;28;20089;-73
2022/04/02 21:45:51;;;;;;;9.23;6.30;;;;;;;;;;5102078;28;20020;-72
2022/04/02 21:48:16;;;;;;;7.13;5.80;;;;;;;;;;5099163;28;20176;-72
2022/04/02 21:50:42;;;;;;;8.45;6.20;;;;;;;;;;5097772;28;20032;-72
2022/04/02 21:53:10;;;;;;;9.55;5.93;;;;;;;;;;5075099;28;20297;-73
2022/04/02 21:55:36;;;;;;;7.03;5.15;;;;;;;;;;5104450;28;20744;-73
2022/04/02 21:58:02;;;;;;;6.53;5.80;;;;;;;;;;5100246;28;20027;-73
2022/04/02 22:00:47;;;;;;;6.35;5.75;;;;;;;;;;5098867;28;20461;-73
2022/04/02 22:03:16;;;;;;;7.68;5.60;;;;;;;;;;5103812;28;20039;-72
2022/04/02 22:05:43;;;;;;;9.63;5.57;;;;;;;;;;5101904;27;20433;-73
2022/04/02 22:08:09;;;;;;;7.78;5.43;;;;;;;;;;5084104;28;20503;-72
2022/04/02 22:10:38;;;;;;;7.18;5.57;;;;;;;;;;5101632;28;20034;-72
2022/04/02 22:13:04;;;;;;;11.05;5.25;;;;;;;;;;5106743;28;20031;-73
2022/04/02 22:15:30;;;;;;;8.02;5.35;;;;;;;;;;5101991;28;20021;-72
2022/04/02 22:17:56;;;;;;;8.95;5.10;;;;;;;;;;5100273;28;20023;-73
2022/04/02 22:20:22;;;;;;;8.05;5.13;;;;;;;;;;5100824;28;20050;-72
2022/04/02 22:22:48;;;;;;;6.32;5.28;;;;;;;;;;5083731;28;20404;-73
2022/04/02 22:25:14;;;;;;;7.15;5.13;;;;;;;;;;5101507;28;20031;-73
2022/04/02 22:27:40;;;;;;;6.18;4.57;;;;;;;;;;5102000;28;20103;-73
2022/04/02 22:30:08;;;;;;;6.97;4.55;;;;;;;;;;5097907;28;20469;-73
2022/04/02 22:32:34;;;;;;;6.57;4.55;;;;;;;;;;5079519;28;20034;-73
2022/04/02 22:35:01;;;;;;;7.82;5.15;;;;;;;;;;5077028;28;20028;-73
2022/04/02 22:37:27;;;;;;;6.32;4.50;;;;;;;;;;5087528;28;20036;-73
2022/04/02 22:39:53;;;;;;;6.90;4.55;;;;;;;;;;5101883;28;20015;-72
2022/04/02 22:42:19;;;;;;;5.72;4.55;;;;;;;;;;5091689;28;20121;-73
2022/04/02 22:44:45;;;;;;;5.85;4.20;;;;;;;;;;5098160;28;20040;-72
2022/04/02 22:47:11;;;;;;;5.47;4.53;;;;;;;;;;5087338;28;20027;-72
2022/04/02 22:49:37;;;;;;;5.82;4.03;;;;;;;;;;5101404;28;20732;-73
2022/04/02 22:52:03;;;;;;;11.05;4.25;;;;;;;;;;5085039;28;20114;-72
2022/04/02 22:54:29;;;;;;;5.75;4.40;;;;;;;;;;5097232;28;20064;-72
2022/04/02 22:56:55;;;;;;;6.90;4.57;;;;;;;;;;5100285;28;20028;-74
2022/04/02 22:59:21;;;;;;;7.57;4.28;;;;;;;;;;5079476;28;20016;-73
2022/04/02 23:01:47;;;;;;;8.27;4.90;;;;;;;;;;5099289;28;20030;-73
2022/04/02 23:07:22;;;;;;;7.82;4.20;;;;;;;;;;5103023;27;20032;-73
2022/04/02 23:09:48;;;;;;;5.88;4.22;;;;;;;;;;5105744;28;20060;-73
2022/04/02 23:12:14;;;;;;;5.65;4.28;;;;;;;;;;5108424;28;20020;-73
2022/04/02 23:14:41;;;;;;;6.28;4.20;;;;;;;;;;5086861;28;20016;-73
2022/04/02 23:17:07;;;;;;;6.53;4.03;;;;;;;;;;5103872;28;20115;-73
2022/04/02 23:19:33;;;;;;;6.40;4.13;;;;;;;;;;5079412;28;20027;-72
2022/04/02 23:21:59;;;;;;;8.52;4.32;;;;;;;;;;5112499;27;20027;-73
2022/04/02 23:24:25;;;;;;;5.43;4.15;;;;;;;;;;5085126;28;20035;-72
2022/04/02 23:26:51;;;;;;;4.43;3.88;;;;;;;;;;5105218;28;20080;-72
2022/04/02 23:29:17;;;;;;;5.20;4.10;;;;;;;;;;5088819;28;20119;-73
2022/04/02 23:31:43;;;;;;;7.95;4.30;;;;;;;;;;5109784;28;20469;-72
2022/04/02 23:34:09;;;;;;;5.20;3.85;;;;;;;;;;5087590;28;20030;-72
2022/04/02 23:36:35;;;;;;;8.07;3.55;;;;;;;;;;5111675;27;20023;-72
2022/04/02 23:39:02;;;;;;;4.50;3.63;;;;;;;;;;5097425;28;20361;-73
2022/04/02 23:41:29;;;;;;;5.30;3.95;;;;;;;;;;5096817;28;20524;-73
2022/04/02 23:43:55;;;;;;;6.78;4.05;;;;;;;;;;5104560;28;20054;-73
2022/04/02 23:46:21;;;;;;;6.05;4.28;;;;;;;;;;5110861;28;20111;-73
2022/04/02 23:48:47;;;;;;;7.28;4.13;;;;;;;;;;5104965;28;20150;-73
2022/04/02 23:51:13;;;;;;;8.07;3.97;;;;;;;;;;5109355;27;20499;-73
2022/04/02 23:53:39;;;;;;;7.22;3.80;;;;;;;;;;5105302;27;20365;-72
2022/04/02 23:56:06;;;;;;;4.85;3.63;;;;;;;;;;5100439;28;20039;-73
2022/04/02 23:58:32;;;;;;;7.68;4.20;;;;;;;;;;5085849;28;20123;-74
